Dubuque Regional Airport
KDBQ : now visible

Airfield :











YOU CAN JOIN US ON...

 
LOGIN :

Register | Disclaimer

   EN    FR    IT 

 









Legend :    VFR   Marginal VFR   IFR   Intensive IFR   Very Intensive IFR
Visi :
Ceiling :
>= 8 km
>= 3000ft
5 to 8 km
1000 to 3000 ft
1500m to 5 km
500 to 1000 ft
800 to 1500m
200 to 500 ft
< 800m
< 200 ft
Symbols :   Thunderstorms  Fog  Heavy snow  Heavy precipitations  Wind > 20 kt






- Airport Elevation : 1077 ft
- IATA code : DBQ


KDBQ - Dubuque Regional

CURRENT METAR :
  • 041353Z 00000KT 7SM SCT100 25/23 A3008 RMK AO2 SLP177 T02500228 $

EXPIRED METARs :
  • 041253Z 00000KT 8SM CLR 24/22 A3008 RMK AO2 SLP176 T02390222 $
  • 041153Z 03003KT 4SM BR CLR 22/22 A3007 RMK AO2 SLP173 T02220222 10239 20200 53002

TAF KDBQ
Valid from the 04 at 12:00 until the 05 at 12:00 UTC


041126Z 0412/0512 VRB04KT 5SM BR FEW200
FM041400 06005KT P6SM SKC
FM041900 08006KT P6SM SKC
FM050000 VRB04KT P6SM SKC
KZAU FIR / North America



MET'MAP, your aeronautical weather chart ! - Copyright ORBIFLY December 2007 - Disclaimer

ORBIFLY MET'MAP TEAM :

Programming & Development : Alexandra Zaïnal
Concept & original design : Baudouin d'Aumeries
Assistance for programming : Marc-Olivier Méhu
Technical & hardware support : Manuel Goepfert

Contact : metmap@orbifly.com




SOURCES & CREDITS :

   NOAA       Earth
Advisory